Time;durP1;ratioP1;P1;durP2;ratioP2;P2;SDS_P1;SDS_P2;PMS_P1;PMS_P2;Temp;Humidity;BMP_temperature;BMP_pressure;BME280_temperature;BME280_humidity;BME280_pressure;Samples;Min_cycle;Max_cycle;Signal;HPM_P1;HPM_P2
2023/01/20 00:01:11;;;;;;;9.05;7.07;;;;;;;-3.42;100.00;95101.25;5105110;28;24434;-72
2023/01/20 00:03:38;;;;;;;10.52;7.60;;;;;;;-3.42;100.00;95100.41;5108244;28;24901;-72
2023/01/20 00:06:04;;;;;;;9.52;7.47;;;;;;;-3.29;100.00;95108.63;5105362;28;24436;-71
2023/01/20 00:08:31;;;;;;;8.50;7.00;;;;;;;-3.21;100.00;95104.22;5100053;28;24433;-72
2023/01/20 00:10:59;;;;;;;12.50;9.55;;;;;;;-3.20;100.00;95110.94;5103503;28;24430;-73
2023/01/20 00:13:25;;;;;;;14.38;9.93;;;;;;;-3.22;100.00;95111.00;5107250;28;24440;-72
2023/01/20 00:15:52;;;;;;;15.70;10.77;;;;;;;-3.17;100.00;95114.25;5106828;28;24461;-72
2023/01/20 00:18:18;;;;;;;13.95;10.85;;;;;;;-3.19;100.00;95107.56;5102233;28;24445;-71
2023/01/20 00:20:45;;;;;;;17.23;10.77;;;;;;;-3.29;100.00;95104.38;5101513;28;24438;-72
2023/01/20 00:23:11;;;;;;;15.17;9.77;;;;;;;-3.33;100.00;95107.00;5100062;28;24552;-72
2023/01/20 00:25:38;;;;;;;13.65;9.00;;;;;;;-3.23;100.00;95111.84;5104039;28;24441;-72
2023/01/20 00:28:06;;;;;;;10.35;8.80;;;;;;;-3.06;100.00;95123.34;5095915;28;24479;-72
2023/01/20 00:30:32;;;;;;;11.80;8.45;;;;;;;-3.08;100.00;95120.84;5107208;28;24437;-72
2023/01/20 00:32:59;;;;;;;12.82;8.60;;;;;;;-3.00;100.00;95120.69;5106803;28;24464;-72
2023/01/20 00:35:25;;;;;;;15.60;8.90;;;;;;;-3.03;100.00;95124.13;5108159;28;24434;-72
2023/01/20 00:37:52;;;;;;;12.43;8.10;;;;;;;-3.14;100.00;95122.69;5105554;28;24450;-72
2023/01/20 00:40:18;;;;;;;12.27;8.38;;;;;;;-3.16;100.00;95126.06;5101010;28;24445;-72
2023/01/20 00:42:45;;;;;;;11.32;7.72;;;;;;;-3.18;100.00;95122.72;5104546;28;24993;-72
2023/01/20 00:45:13;;;;;;;9.95;8.10;;;;;;;-3.11;100.00;95128.50;5107821;28;24849;-72
2023/01/20 00:47:39;;;;;;;11.27;8.23;;;;;;;-3.04;100.00;95134.28;5099006;28;25002;-72
2023/01/20 00:50:06;;;;;;;11.00;8.38;;;;;;;-3.03;100.00;95130.91;5102786;28;25025;-72
2023/01/20 00:52:33;;;;;;;9.00;7.47;;;;;;;-3.00;100.00;95136.72;5107761;28;24440;-72
2023/01/20 00:54:59;;;;;;;10.02;7.80;;;;;;;-2.97;100.00;95134.13;5102520;28;24453;-72
2023/01/20 00:57:26;;;;;;;10.40;8.00;;;;;;;-2.94;100.00;95131.53;5101977;28;24535;-71
2023/01/20 00:59:52;;;;;;;10.18;7.65;;;;;;;-2.83;100.00;95126.22;5103064;28;24433;-72
2023/01/20 01:02:20;;;;;;;11.13;8.52;;;;;;;-2.76;100.00;95134.53;5106180;28;24450;-74
2023/01/20 01:04:49;;;;;;;14.70;9.52;;;;;;;-2.76;100.00;95137.06;5100913;28;24445;-73
2023/01/20 01:07:16;;;;;;;13.53;9.47;;;;;;;-2.74;100.00;95145.50;5098448;28;24437;-72
2023/01/20 01:09:42;;;;;;;12.30;8.15;;;;;;;-2.89;100.00;95153.38;5104842;28;24437;-72
2023/01/20 01:12:09;;;;;;;12.18;7.93;;;;;;;-2.88;100.00;95165.22;5105740;28;24430;-72
2023/01/20 01:14:35;;;;;;;11.07;7.90;;;;;;;-2.94;100.00;95159.38;5105756;28;24433;-72
2023/01/20 01:17:02;;;;;;;10.02;7.78;;;;;;;-3.01;100.00;95160.38;5094782;28;24453;-72
2023/01/20 01:19:29;;;;;;;9.02;7.20;;;;;;;-3.21;100.00;95157.41;5106212;28;24440;-71
2023/01/20 01:21:56;;;;;;;9.50;7.80;;;;;;;-3.31;100.00;95166.88;5104090;28;24437;-72
2023/01/20 01:24:22;;;;;;;10.38;7.95;;;;;;;-3.36;100.00;95160.25;5104484;28;24442;-71
2023/01/20 01:26:49;;;;;;;14.77;8.87;;;;;;;-3.25;100.00;95166.78;5103440;28;24483;-71
2023/01/20 01:29:15;;;;;;;11.70;9.02;;;;;;;-3.26;100.00;95175.22;5103133;28;24438;-72
2023/01/20 01:31:42;;;;;;;10.70;8.30;;;;;;;-3.22;100.00;95176.00;5107782;28;24433;-72
2023/01/20 01:34:08;;;;;;;13.30;9.68;;;;;;;-3.28;100.00;95174.41;5103759;28;24445;-72
2023/01/20 01:36:36;;;;;;;12.23;9.30;;;;;;;-3.34;100.00;95182.13;5100053;28;24457;-72
2023/01/20 01:39:02;;;;;;;13.07;9.23;;;;;;;-3.44;100.00;95178.94;5099387;28;24437;-72
2023/01/20 01:41:29;;;;;;;11.20;9.00;;;;;;;-3.34;100.00;95182.13;5091370;28;24994;-72
2023/01/20 01:44:08;;;;;;;13.20;9.02;;;;;;;-3.24;100.00;95188.69;5102807;28;24434;-72
2023/01/20 01:46:35;;;;;;;17.40;11.07;;;;;;;-3.11;100.00;95194.38;5091843;28;24461;-72
2023/01/20 01:49:04;;;;;;;14.75;11.45;;;;;;;-3.00;100.00;95195.00;5099318;28;24434;-72
2023/01/20 01:51:35;;;;;;;14.93;11.25;;;;;;;-3.17;100.00;95204.59;5090903;28;24444;-72
2023/01/20 01:54:09;;;;;;;14.20;10.45;;;;;;;-3.29;100.00;95193.00;5104530;28;24449;-72
2023/01/20 01:56:37;;;;;;;12.75;9.85;;;;;;;-3.33;100.00;95191.41;5102034;28;24457;-72
2023/01/20 01:59:04;;;;;;;14.55;9.85;;;;;;;-3.49;100.00;95195.88;5098782;28;24437;-72
2023/01/20 02:01:34;;;;;;;16.47;9.47;;;;;;;-3.52;100.00;95195.97;5093238;28;24465;-72
2023/01/20 02:04:04;;;;;;;11.53;8.50;;;;;;;-3.45;100.00;95202.59;5097123;28;24796;-72
2023/01/20 02:06:34;;;;;;;13.80;8.48;;;;;;;-3.45;100.00;95200.06;5095174;28;24991;-72
2023/01/20 02:09:02;;;;;;;11.15;8.45;;;;;;;-3.50;100.00;95201.81;5102137;28;24433;-72
2023/01/20 02:11:32;;;;;;;9.77;7.95;;;;;;;-3.42;100.00;95202.50;5109484;28;24800;-72
2023/01/20 02:13:59;;;;;;;15.35;8.02;;;;;;;-3.41;100.00;95200.84;5100668;28;24812;-72
2023/01/20 02:16:36;;;;;;;12.15;8.27;;;;;;;-3.38;100.00;95210.88;5105896;28;24458;-72
2023/01/20 02:19:16;;;;;;;11.07;7.88;;;;;;;-3.30;100.00;95209.06;5100745;28;24970;-71
2023/01/20 02:22:13;;;;;;;11.57;8.20;;;;;;;-3.35;100.00;95210.00;5095676;28;24436;-72
2023/01/20 02:25:28;;;;;;;10.73;7.78;;;;;;;-3.41;100.00;95206.72;5093308;28;24978;-73
2023/01/20 02:28:30;;;;;;;9.82;7.70;;;;;;;-3.39;100.00;95209.22;5099685;28;24437;-73
2023/01/20 02:31:25;;;;;;;10.15;7.40;;;;;;;-3.34;100.00;95214.19;5106569;28;24430;-73
2023/01/20 02:33:58;;;;;;;10.57;7.70;;;;;;;-3.38;100.00;95215.13;5089918;28;24449;-73
2023/01/20 02:36:29;;;;;;;11.57;8.15;;;;;;;-3.41;100.00;95221.09;5099729;28;24437;-73
2023/01/20 02:39:00;;;;;;;11.32;7.13;;;;;;;-3.37;100.00;95217.66;5090469;28;24436;-73
2023/01/20 02:41:37;;;;;;;11.15;6.75;;;;;;;-3.39;100.00;95224.41;5100093;28;24433;-73
2023/01/20 02:44:13;;;;;;;7.75;6.32;;;;;;;-3.39;100.00;95234.53;5091915;28;24800;-73
2023/01/20 02:46:48;;;;;;;8.57;6.13;;;;;;;-3.33;100.00;95233.63;5092214;28;24448;-73
2023/01/20 02:49:19;;;;;;;8.50;5.60;;;;;;;-3.31;100.00;95231.88;5100523;28;24434;-73
2023/01/20 02:51:52;;;;;;;7.68;6.07;;;;;;;-3.30;100.00;95239.47;5102642;28;24503;-73
2023/01/20 02:54:22;;;;;;;6.65;5.55;;;;;;;-3.31;100.00;95240.31;5099491;28;24434;-73
2023/01/20 02:56:51;;;;;;;7.25;5.45;;;;;;;-3.32;100.00;95237.81;5105820;28;24458;-73
2023/01/20 02:59:24;;;;;;;8.88;6.35;;;;;;;-3.20;100.00;95232.53;5098414;28;25022;-73
2023/01/20 03:01:53;;;;;;;9.93;7.47;;;;;;;-3.26;100.00;95236.00;5093078;28;24791;-73
2023/01/20 03:04:25;;;;;;;10.32;7.05;;;;;;;-3.45;100.00;95248.16;5093455;28;24442;-73
2023/01/20 03:06:54;;;;;;;15.13;7.93;;;;;;;-3.41;100.00;95247.25;5104894;28;24433;-73
2023/01/20 03:09:29;;;;;;;10.43;7.53;;;;;;;-3.49;100.00;95248.22;5107137;28;24975;-73
2023/01/20 03:12:00;;;;;;;9.30;6.90;;;;;;;-3.57;100.00;95247.50;5093370;28;24437;-73
2023/01/20 03:14:27;;;;;;;7.57;6.13;;;;;;;-3.73;100.00;95247.75;5101431;28;24830;-73
2023/01/20 03:16:54;;;;;;;8.38;6.22;;;;;;;-3.69;100.00;95261.19;5103807;28;24457;-73
2023/01/20 03:19:21;;;;;;;10.23;6.38;;;;;;;-3.69;100.00;95251.06;5100303;28;24991;-73
2023/01/20 03:21:48;;;;;;;9.68;5.80;;;;;;;-3.69;100.00;95251.06;5104830;28;24434;-73
2023/01/20 03:24:15;;;;;;;8.10;5.93;;;;;;;-3.61;100.00;95253.47;5103256;28;24440;-73
2023/01/20 03:26:42;;;;;;;9.68;5.80;;;;;;;-3.63;100.00;95256.06;5108451;28;24441;-73
2023/01/20 03:29:11;;;;;;;6.05;5.40;;;;;;;-3.66;100.00;95261.16;5101970;28;24457;-73
2023/01/20 03:31:41;;;;;;;7.07;5.77;;;;;;;-3.67;100.00;95265.38;5108509;28;24451;-73
2023/01/20 03:34:11;;;;;;;8.73;5.95;;;;;;;-3.69;100.00;95262.03;5101381;28;24488;-73
2023/01/20 03:36:40;;;;;;;7.57;5.72;;;;;;;-3.70;100.00;95267.13;5105334;28;24434;-73
2023/01/20 03:39:07;;;;;;;11.47;5.97;;;;;;;-3.75;100.00;95267.19;5100823;28;24426;-73
2023/01/20 03:41:46;;;;;;;7.68;5.78;;;;;;;-3.75;100.00;95273.94;5103533;28;24799;-73
2023/01/20 03:44:22;;;;;;;8.27;5.82;;;;;;;-3.76;100.00;95268.03;5094866;28;24434;-73
2023/01/20 03:46:53;;;;;;;9.43;5.82;;;;;;;-3.72;100.00;95281.50;5102165;28;24987;-73
2023/01/20 03:49:27;;;;;;;8.50;6.68;;;;;;;-3.77;100.00;95278.19;5102858;28;24438;-73
2023/01/20 03:52:02;;;;;;;13.77;5.72;;;;;;;-3.92;100.00;95271.69;5103343;28;24438;-73
2023/01/20 03:54:35;;;;;;;8.20;5.70;;;;;;;-3.97;100.00;95276.81;5110271;28;24461;-73
2023/01/20 03:57:08;;;;;;;9.60;6.05;;;;;;;-4.06;100.00;95283.69;5095324;28;24446;-73
2023/01/20 03:59:38;;;;;;;10.15;6.00;;;;;;;-4.06;100.00;95276.94;5093025;28;25001;-73
2023/01/20 04:02:07;;;;;;;7.63;5.73;;;;;;;-4.03;100.00;95283.66;5102729;28;24517;-73
2023/01/20 04:04:37;;;;;;;8.10;6.03;;;;;;;-4.01;100.00;95281.91;5105401;28;24446;-73
2023/01/20 04:07:06;;;;;;;7.93;5.83;;;;;;;-4.07;100.00;95285.38;5101493;28;24441;-73
2023/01/20 04:09:38;;;;;;;6.57;5.75;;;;;;;-3.95;100.00;95291.94;5100503;28;24441;-73
2023/01/20 04:12:05;;;;;;;9.43;6.40;;;;;;;-3.90;100.00;95295.25;5094587;28;24430;-73
2023/01/20 04:14:31;;;;;;;8.10;6.38;;;;;;;-4.01;100.00;95297.09;5092696;28;24434;-73
2023/01/20 04:16:58;;;;;;;10.20;7.22;;;;;;;-4.17;100.00;95302.34;5095096;28;25002;-73
2023/01/20 04:19:26;;;;;;;9.18;6.43;;;;;;;-4.08;100.00;95295.50;5100505;28;24441;-72
2023/01/20 04:22:00;;;;;;;9.05;6.65;;;;;;;-3.94;100.00;95298.69;5099052;28;24441;-73
2023/01/20 04:24:33;;;;;;;9.10;7.07;;;;;;;-3.90;100.00;95301.13;5110837;28;24469;-72
2023/01/20 04:26:59;;;;;;;11.55;7.90;;;;;;;-3.92;100.00;95296.97;5102176;28;24512;-73
2023/01/20 04:29:26;;;;;;;13.23;8.40;;;;;;;-3.98;100.00;95295.34;5107165;28;25053;-72
2023/01/20 04:31:58;;;;;;;11.05;8.05;;;;;;;-4.03;100.00;95298.81;5099552;28;24971;-73
2023/01/20 04:34:24;;;;;;;9.68;7.45;;;;;;;-4.23;100.00;95296.53;5109681;28;24437;-73
2023/01/20 04:36:51;;;;;;;10.40;7.88;;;;;;;-4.32;100.00;95301.72;5102465;28;24437;-72
2023/01/20 04:39:17;;;;;;;12.77;7.53;;;;;;;-4.37;100.00;95311.91;5109800;28;24440;-72
2023/01/20 04:41:46;;;;;;;10.77;7.45;;;;;;;-4.25;100.00;95300.78;5101661;28;24437;-72
2023/01/20 04:44:12;;;;;;;11.30;7.63;;;;;;;-4.23;100.00;95304.94;5107484;28;24987;-72
2023/01/20 04:46:39;;;;;;;11.27;8.00;;;;;;;-4.21;100.00;95300.72;5103725;28;24983;-72
2023/01/20 04:49:05;;;;;;;8.57;7.13;;;;;;;-4.24;100.00;95310.88;5106565;28;25092;-73
2023/01/20 04:51:32;;;;;;;9.60;6.80;;;;;;;-4.09;100.00;95304.78;5100165;28;24981;-73
2023/01/20 04:53:59;;;;;;;8.50;6.78;;;;;;;-4.08;100.00;95314.03;5105784;28;25033;-73
2023/01/20 04:56:26;;;;;;;8.35;6.07;;;;;;;-4.06;100.00;95319.09;5100343;28;24437;-73
2023/01/20 04:58:54;;;;;;;9.43;7.03;;;;;;;-3.94;100.00;95318.91;5104026;28;24452;-73
2023/01/20 05:01:20;;;;;;;11.20;7.38;;;;;;;-3.78;100.00;95333.03;5104127;28;24453;-73
2023/01/20 05:03:47;;;;;;;11.88;8.63;;;;;;;-3.68;100.00;95339.63;5107874;28;24446;-73
2023/01/20 05:06:14;;;;;;;11.93;7.97;;;;;;;-4.17;100.00;95340.28;5105943;28;24437;-72
2023/01/20 05:08:40;;;;;;;10.35;6.70;;;;;;;-4.25;100.00;95339.56;5090978;28;24434;-73
2023/01/20 05:11:07;;;;;;;11.13;7.15;;;;;;;-4.36;100.00;95343.06;5099223;28;24445;-73
2023/01/20 05:13:37;;;;;;;22.17;16.40;;;;;;;-4.40;100.00;95347.31;5097181;28;24445;-73
2023/01/20 05:16:06;;;;;;;26.80;13.73;;;;;;;-4.24;100.00;95353.03;5103017;28;24489;-73
2023/01/20 05:18:33;;;;;;;16.48;9.88;;;;;;;-4.25;100.00;95349.66;5100648;28;24812;-73
2023/01/20 05:21:00;;;;;;;13.73;9.70;;;;;;;-4.20;100.00;95360.56;5101714;28;24549;-73
2023/01/20 05:23:27;;;;;;;16.83;11.32;;;;;;;-4.07;100.00;95358.72;5101477;28;24438;-72
2023/01/20 05:25:53;;;;;;;18.77;11.13;;;;;;;-4.05;100.00;95367.13;5095196;28;24442;-73
2023/01/20 05:28:21;;;;;;;17.85;10.10;;;;;;;-4.14;100.00;95369.78;5090539;28;24430;-73
2023/01/20 05:30:48;;;;;;;22.90;10.18;;;;;;;-4.34;100.00;95372.50;5090058;28;24800;-72
2023/01/20 05:33:15;;;;;;;11.80;8.88;;;;;;;-4.34;100.00;95369.16;5103097;28;24461;-73
2023/01/20 05:35:42;;;;;;;14.27;8.48;;;;;;;-4.50;100.00;95381.97;5096841;28;24430;-73
2023/01/20 05:38:08;;;;;;;10.70;7.85;;;;;;;-4.35;100.00;95380.13;5093328;28;24453;-72
2023/01/20 05:40:35;;;;;;;10.05;7.43;;;;;;;-4.32;100.00;95373.34;5102465;28;24449;-73
2023/01/20 05:43:02;;;;;;;7.25;5.43;;;;;;;-4.24;100.00;95376.63;5099237;28;24438;-73
2023/01/20 05:45:31;;;;;;;11.65;7.07;;;;;;;-4.16;100.00;95384.94;5106996;28;24982;-73
2023/01/20 05:47:58;;;;;;;8.70;6.25;;;;;;;-4.10;100.00;95386.56;5103311;28;24860;-73
2023/01/20 05:50:27;;;;;;;6.38;5.10;;;;;;;-4.25;100.00;95387.59;5100906;28;24434;-73
2023/01/20 05:52:54;;;;;;;8.07;4.93;;;;;;;-4.16;100.00;95392.53;5091153;28;24835;-73
2023/01/20 05:55:21;;;;;;;5.63;3.85;;;;;;;-4.07;100.00;95395.81;5092132;28;24440;-73
2023/01/20 05:57:47;;;;;;;7.40;5.47;;;;;;;-3.97;100.00;95398.22;5101870;28;24914;-73
2023/01/20 06:00:14;;;;;;;10.68;5.80;;;;;;;-3.93;100.00;95394.81;5099897;28;24445;-73
2023/01/20 06:02:41;;;;;;;7.50;5.43;;;;;;;-3.89;100.00;95398.13;5102464;28;24425;-73
2023/01/20 06:05:08;;;;;;;6.93;5.68;;;;;;;-3.93;100.00;95406.59;5096460;28;24435;-73
2023/01/20 06:07:35;;;;;;;7.72;5.68;;;;;;;-3.95;100.00;95413.38;5101835;28;24436;-73
2023/01/20 06:10:02;;;;;;;7.53;4.97;;;;;;;-4.10;100.00;95416.09;5099689;28;24433;-73
2023/01/20 06:12:28;;;;;;;7.85;4.95;;;;;;;-4.07;100.00;95401.72;5087454;28;25096;-73
2023/01/20 06:14:55;;;;;;;6.22;4.78;;;;;;;-4.18;100.00;95409.44;5098283;28;24441;-73
2023/01/20 06:17:21;;;;;;;4.80;4.37;;;;;;;-4.28;100.00;95407.00;5095545;28;24457;-74
2023/01/20 06:19:48;;;;;;;6.75;4.72;;;;;;;-4.42;100.00;95407.16;5082989;28;24430;-72
2023/01/20 06:22:14;;;;;;;5.03;4.35;;;;;;;-4.57;100.00;95417.44;5085827;28;24431;-73
2023/01/20 06:24:42;;;;;;;7.15;4.88;;;;;;;-4.69;100.00;95415.88;5100136;28;24437;-72
2023/01/20 06:27:09;;;;;;;9.63;8.45;;;;;;;-4.88;100.00;95421.09;5101096;28;25253;-73
2023/01/20 06:29:36;;;;;;;13.75;7.40;;;;;;;-4.74;100.00;95422.66;5104527;28;24430;-73
2023/01/20 06:32:02;;;;;;;9.67;7.00;;;;;;;-4.62;100.00;95423.38;5104120;28;24441;-74
2023/01/20 06:34:29;;;;;;;10.95;6.65;;;;;;;-4.47;100.00;95434.19;5095203;28;24440;-73
2023/01/20 06:36:55;;;;;;;8.63;5.70;;;;;;;-4.36;100.00;95439.13;5103738;28;24434;-73
2023/01/20 06:39:22;;;;;;;5.72;5.03;;;;;;;-4.41;100.00;95441.72;5101909;28;24450;-73
2023/01/20 06:41:50;;;;;;;7.30;5.32;;;;;;;-4.41;100.00;95440.03;5099822;28;24445;-73
2023/01/20 06:44:16;;;;;;;9.95;5.55;;;;;;;-4.46;100.00;95440.91;5098145;28;24438;-73
2023/01/20 06:46:43;;;;;;;7.60;4.70;;;;;;;-4.52;100.00;95449.41;5101822;28;24437;-73
2023/01/20 06:49:09;;;;;;;8.02;4.97;;;;;;;-4.63;100.00;95451.19;5089038;28;24445;-72
2023/01/20 06:51:36;;;;;;;6.90;4.70;;;;;;;-4.77;100.00;95456.34;5098839;28;24430;-73
2023/01/20 06:54:02;;;;;;;5.57;4.93;;;;;;;-4.78;100.00;95453.81;5096828;28;24918;-73
2023/01/20 06:56:29;;;;;;;7.55;4.93;;;;;;;-4.73;100.00;95452.94;5103270;28;24439;-72
2023/01/20 06:58:57;;;;;;;5.65;4.47;;;;;;;-4.65;100.00;95453.72;5106019;28;24448;-72
2023/01/20 07:01:25;;;;;;;6.68;4.70;;;;;;;-4.52;100.00;95466.25;5099470;28;24437;-73
2023/01/20 07:03:52;;;;;;;6.70;4.80;;;;;;;-4.53;100.00;95464.56;5092222;28;24442;-72
2023/01/20 07:06:26;;;;;;;6.43;4.70;;;;;;;-4.46;100.00;95468.72;5103295;28;24438;-72
2023/01/20 07:08:53;;;;;;;5.30;4.55;;;;;;;-4.51;100.00;95478.03;5098367;28;24425;-73
2023/01/20 07:11:19;;;;;;;10.60;5.10;;;;;;;-4.52;100.00;95478.91;5108642;28;24441;-72
2023/01/20 07:13:46;;;;;;;7.28;4.80;;;;;;;-4.57;100.00;95480.59;5107062;28;24437;-73
2023/01/20 07:16:14;;;;;;;7.55;4.60;;;;;;;-4.57;100.00;95493.25;5097011;28;24470;-72
2023/01/20 07:18:41;;;;;;;6.40;4.57;;;;;;;-4.55;100.00;95483.97;5091085;28;24442;-72
2023/01/20 07:21:10;;;;;;;5.47;4.30;;;;;;;-4.47;100.00;95495.69;5097139;28;24434;-73
2023/01/20 07:23:36;;;;;;;5.50;4.35;;;;;;;-4.64;100.00;95503.38;5095382;28;24434;-69
2023/01/20 07:26:06;;;;;;;10.60;4.82;;;;;;;-4.60;100.00;95508.44;5095584;28;24434;-73
2023/01/20 07:28:33;;;;;;;5.67;4.50;;;;;;;-4.53;100.00;95510.06;5094305;28;24433;-73
2023/01/20 07:31:03;;;;;;;8.50;3.88;;;;;;;-4.51;100.00;95521.00;5094520;28;24441;-73
2023/01/20 07:33:31;;;;;;;6.82;4.50;;;;;;;-4.55;100.00;95521.88;5093882;28;24442;-73
2023/01/20 07:35:58;;;;;;;8.05;4.75;;;;;;;-4.75;100.00;95524.53;5095094;28;24511;-73
2023/01/20 07:38:24;;;;;;;4.78;3.85;;;;;;;-4.88;100.00;95529.69;5095582;28;24450;-74
2023/01/20 07:40:51;;;;;;;6.32;4.50;;;;;;;-5.11;100.00;95532.38;5085334;28;24437;-73
2023/01/20 07:43:17;;;;;;;4.53;4.00;;;;;;;-5.02;100.00;95530.63;5092181;28;25013;-73
2023/01/20 07:45:44;;;;;;;11.23;6.05;;;;;;;-5.06;100.00;95536.56;5094625;28;24993;-74
2023/01/20 07:48:10;;;;;;;29.77;19.55;;;;;;;-5.08;100.00;95535.72;5094211;28;25006;-74
2023/01/20 07:50:38;;;;;;;26.35;16.88;;;;;;;-4.94;100.00;95546.56;5092104;28;24433;-74
2023/01/20 07:53:05;;;;;;;10.25;7.63;;;;;;;-4.75;100.00;95542.22;5089222;28;24445;-74
2023/01/20 07:55:31;;;;;;;13.13;9.23;;;;;;;-4.79;100.00;95549.00;5093884;28;24466;-73
2023/01/20 07:57:58;;;;;;;15.93;8.95;;;;;;;-4.68;100.00;95553.97;5095946;28;24796;-72
2023/01/20 08:00:25;;;;;;;9.55;6.60;;;;;;;-4.81;100.00;95565.03;5089524;28;25187;-73
2023/01/20 08:02:51;;;;;;;12.90;6.47;;;;;;;-4.81;100.00;95563.34;5091799;28;24441;-74
2023/01/20 08:05:18;;;;;;;10.43;6.83;;;;;;;-4.91;100.00;95570.13;5092298;28;24498;-73
2023/01/20 08:07:50;;;;;;;9.45;6.57;;;;;;;-4.96;100.00;95571.84;5095071;28;24437;-73
2023/01/20 08:10:17;;;;;;;12.80;7.82;;;;;;;-4.94;100.00;95575.19;5091876;28;24441;-74
2023/01/20 08:12:43;;;;;;;14.10;9.20;;;;;;;-4.84;100.00;95573.47;5095023;28;24441;-74
2023/01/20 08:15:11;;;;;;;19.27;12.73;;;;;;;-4.91;100.00;95577.69;5097577;28;24534;-75
2023/01/20 08:17:37;;;;;;;12.90;8.13;;;;;;;-4.80;100.00;95586.91;5096294;28;24436;-74
2023/01/20 08:20:05;;;;;;;17.02;12.10;;;;;;;-4.66;100.00;95580.91;5096245;28;25014;-73
2023/01/20 08:22:34;;;;;;;16.35;11.80;;;;;;;-4.51;100.00;95590.09;5092192;28;24530;-72
2023/01/20 08:25:02;;;;;;;15.15;10.10;;;;;;;-4.43;100.00;95579.91;5091743;28;24477;-73
2023/01/20 08:27:28;;;;;;;12.60;8.97;;;;;;;-4.35;100.00;95582.38;5101437;28;24487;-73
2023/01/20 08:29:55;;;;;;;13.38;7.82;;;;;;;-4.38;100.00;95595.88;5104240;28;24445;-73
2023/01/20 08:32:21;;;;;;;10.30;6.78;;;;;;;-4.27;100.00;95596.63;5094534;28;24850;-73
2023/01/20 08:34:48;;;;;;;12.50;6.78;;;;;;;-4.17;100.00;95600.75;5100262;28;24433;-75
2023/01/20 08:37:14;;;;;;;10.13;6.68;;;;;;;-4.28;100.00;95601.69;5081051;28;24437;-74
2023/01/20 08:39:41;;;;;;;9.27;5.75;;;;;;;-4.24;100.00;95606.72;5081022;28;24461;-73
2023/01/20 08:42:09;;;;;;;11.98;6.20;;;;;;;-4.16;100.00;95611.72;5094293;28;24468;-73
2023/01/20 08:44:35;;;;;;;15.03;7.53;;;;;;;-4.22;100.00;95609.25;5102575;28;24430;-73
2023/01/20 08:47:02;;;;;;;11.05;8.02;;;;;;;-4.15;100.00;95611.72;5099181;28;24427;-73
2023/01/20 08:49:29;;;;;;;12.75;8.68;;;;;;;-4.08;100.00;95619.22;5096697;28;24461;-73
2023/01/20 08:51:56;;;;;;;16.35;10.88;;;;;;;-4.00;100.00;95623.41;5104291;28;24434;-73
2023/01/20 08:54:22;;;;;;;10.65;7.10;;;;;;;-3.85;100.00;95626.66;5100907;28;24448;-73
2023/01/20 08:56:50;;;;;;;8.25;5.68;;;;;;;-3.72;100.00;95623.97;5103065;28;24453;-73
2023/01/20 08:59:19;;;;;;;7.18;5.20;;;;;;;-3.72;100.00;95623.97;5102099;28;24534;-72
2023/01/20 09:01:46;;;;;;;7.97;5.13;;;;;;;-3.70;100.00;95621.44;5096618;28;24444;-73
2023/01/20 09:04:12;;;;;;;8.35;5.15;;;;;;;-3.62;100.00;95627.25;5105655;28;24446;-73
2023/01/20 09:06:41;;;;;;;10.63;5.25;;;;;;;-3.50;100.00;95628.81;5096837;28;25003;-73
2023/01/20 09:09:07;;;;;;;7.57;5.28;;;;;;;-3.43;100.00;95627.91;5092094;28;24437;-73
2023/01/20 09:11:34;;;;;;;6.25;4.88;;;;;;;-3.30;100.00;95629.44;5090553;28;24438;-74
2023/01/20 09:14:01;;;;;;;7.63;5.15;;;;;;;-3.21;100.00;95633.56;5102993;28;24512;-73
2023/01/20 09:16:28;;;;;;;10.38;7.68;;;;;;;-3.12;100.00;95641.03;5093520;28;24432;-73
2023/01/20 09:18:55;;;;;;;17.33;10.52;;;;;;;-3.17;100.00;95646.16;5104614;28;24457;-72
2023/01/20 09:21:21;;;;;;;21.45;13.20;;;;;;;-3.14;100.00;95639.41;5104576;28;24445;-73
2023/01/20 09:23:48;;;;;;;16.73;11.52;;;;;;;-3.21;100.00;95642.00;5098410;28;24449;-74
2023/01/20 09:26:15;;;;;;;14.65;9.70;;;;;;;-3.21;100.00;95641.16;5103678;28;24429;-73
2023/01/20 09:28:44;;;;;;;16.98;8.68;;;;;;;-3.01;100.00;95646.81;5102942;28;24437;-74
2023/01/20 09:31:12;;;;;;;10.10;6.68;;;;;;;-2.85;100.00;95642.41;5091898;28;24535;-73
2023/01/20 09:33:40;;;;;;;8.40;6.20;;;;;;;-2.60;100.00;95650.53;5103534;28;24476;-73
2023/01/20 09:36:09;;;;;;;7.20;5.75;;;;;;;-2.67;100.00;95651.47;5102080;28;24486;-72
2023/01/20 09:44:29;;;;;;;7.20;4.55;;;;;;;-2.74;100.00;95650.72;5105817;28;24551;-73
2023/01/20 09:47:20;;;;;;;5.97;4.60;;;;;;;-2.64;100.00;95656.50;5094654;28;24441;-73
2023/01/20 09:53:07;;;;;;;6.88;5.70;;;;;;;-2.57;100.00;95654.72;5093984;28;24437;-74
2023/01/20 09:55:42;;;;;;;6.72;5.35;;;;;;;-2.15;100.00;95655.81;5101109;28;24807;-74
2023/01/20 09:58:15;;;;;;;9.90;6.20;;;;;;;-1.97;100.00;95664.81;5093678;28;24449;-74
2023/01/20 10:00:46;;;;;;;9.48;6.28;;;;;;;-1.90;100.00;95670.66;5106347;28;24450;-72
2023/01/20 10:03:18;;;;;;;7.50;5.90;;;;;;;-1.56;100.00;95676.88;5100230;28;24441;-74
2023/01/20 10:05:50;;;;;;;8.88;6.35;;;;;;;-1.94;100.00;95674.94;5106027;28;24452;-73
2023/01/20 10:08:22;;;;;;;8.20;6.68;;;;;;;-1.97;100.00;95670.72;5091172;28;24433;-73
2023/01/20 10:10:54;;;;;;;8.77;6.65;;;;;;;-1.90;100.00;95670.66;5099566;28;24433;-73
2023/01/20 10:13:26;;;;;;;10.70;7.50;;;;;;;-1.70;100.00;95678.78;5090665;28;24442;-73
2023/01/20 10:15:55;;;;;;;8.57;7.07;;;;;;;-1.68;100.00;95676.22;5101967;28;24448;-74
2023/01/20 10:18:27;;;;;;;14.67;7.57;;;;;;;-1.52;100.00;95678.47;5106608;28;24441;-73
2023/01/20 10:21:01;;;;;;;12.38;7.05;;;;;;;-1.50;100.00;95676.75;5099333;28;24453;-73
2023/01/20 10:23:33;;;;;;;11.37;6.90;;;;;;;-1.20;100.00;95671.97;5094461;28;24449;-74
2023/01/20 10:26:07;;;;;;;8.40;6.20;;;;;;;-1.04;100.00;95678.47;5104866;28;24525;-74
2023/01/20 10:28:39;;;;;;;11.35;6.55;;;;;;;-1.03;100.00;95680.13;5099264;28;24804;-74
2023/01/20 10:31:05;;;;;;;10.82;6.55;;;;;;;-0.62;100.00;95675.09;5100152;28;24437;-74
2023/01/20 10:33:37;;;;;;;6.97;6.18;;;;;;;-0.40;100.00;95681.41;5108265;28;24976;-73
2023/01/20 10:36:13;;;;;;;10.35;6.38;;;;;;;-0.29;100.00;95679.47;5109612;28;24445;-73
2023/01/20 10:38:53;;;;;;;7.55;5.93;;;;;;;-0.53;100.00;95683.34;5105402;28;24440;-73
2023/01/20 10:41:26;;;;;;;12.68;6.28;;;;;;;-0.65;100.00;95683.63;5107871;28;24437;-74
2023/01/20 10:43:53;;;;;;;8.80;5.87;;;;;;;-0.57;100.00;95686.00;5105614;28;24442;-74
2023/01/20 10:46:41;;;;;;;9.00;5.75;;;;;;;-0.48;100.00;95680.75;5101280;28;25238;-74
2023/01/20 10:49:32;;;;;;;10.30;6.37;;;;;;;-0.76;100.00;95681.28;5100406;28;24427;-73
2023/01/20 10:52:15;;;;;;;11.85;6.68;;;;;;;-0.98;100.00;95677.50;5100624;28;24960;-74
2023/01/20 10:54:50;;;;;;;9.52;6.90;;;;;;;-0.86;100.00;95684.88;5093677;28;24426;-74
2023/01/20 10:57:16;;;;;;;9.63;6.50;;;;;;;-0.84;100.00;95685.69;5112022;28;24433;-74
2023/01/20 10:59:47;;;;;;;10.57;7.07;;;;;;;-1.09;100.00;95684.50;5100725;28;25026;-74
2023/01/20 11:02:17;;;;;;;7.90;6.75;;;;;;;-1.06;100.00;95684.44;5098043;28;24445;-74
2023/01/20 11:04:45;;;;;;;11.07;6.70;;;;;;;-1.08;100.00;95688.69;5095504;28;24461;-73
2023/01/20 11:07:17;;;;;;;11.20;7.37;;;;;;;-0.99;100.00;95678.38;5112195;28;24524;-73
2023/01/20 11:09:44;;;;;;;9.20;6.60;;;;;;;-0.85;100.00;95688.28;5097491;28;24430;-73
2023/01/20 11:12:15;;;;;;;9.33;6.73;;;;;;;-0.90;100.00;95690.88;5103720;28;24983;-74
2023/01/20 11:14:43;;;;;;;10.43;6.80;;;;;;;-0.98;100.00;95691.03;5099161;28;24793;-74
2023/01/20 11:17:15;;;;;;;9.02;6.72;;;;;;;-1.02;100.00;95691.13;5108100;28;24433;-74
2023/01/20 11:19:47;;;;;;;7.78;5.95;;;;;;;-0.77;100.00;95691.50;5105516;28;24450;-73
2023/01/20 11:22:19;;;;;;;8.32;6.15;;;;;;;-0.78;100.00;95693.22;5103859;28;24440;-73
2023/01/20 11:24:46;;;;;;;7.10;6.07;;;;;;;-0.72;100.00;95692.22;5095372;28;24449;-74
2023/01/20 11:27:17;;;;;;;7.13;5.03;;;;;;;-0.76;100.00;95690.63;5102190;28;24453;-74
2023/01/20 11:29:48;;;;;;;9.40;5.88;;;;;;;-0.81;100.00;95689.88;5104222;28;24433;-74
2023/01/20 11:32:27;;;;;;;6.18;5.57;;;;;;;-0.94;100.00;95690.97;5094997;28;24441;-74
2023/01/20 11:34:54;;;;;;;6.65;5.50;;;;;;;-1.08;100.00;95688.69;5099639;28;24433;-74
2023/01/20 11:37:24;;;;;;;6.38;5.70;;;;;;;-0.95;100.00;95700.31;5103170;28;24905;-73